createdAt,value
2019-04-28T00:02:01.328Z,5.30
2019-04-28T00:04:27.064Z,5.30
2019-04-28T00:06:53.913Z,5.30
2019-04-28T00:09:21.371Z,5.30
2019-04-28T00:11:47.592Z,5.20
2019-04-28T00:14:14.434Z,5.20
2019-04-28T00:16:41.333Z,5.10
2019-04-28T00:19:08.020Z,5.00
2019-04-28T00:21:36.406Z,5.00
2019-04-28T00:24:06.208Z,5.00
2019-04-28T00:26:33.052Z,5.00
2019-04-28T00:29:01.258Z,4.90
2019-04-28T00:31:26.843Z,4.90
2019-04-28T00:33:53.663Z,4.90
2019-04-28T00:36:21.557Z,4.90
2019-04-28T00:38:47.475Z,4.80
2019-04-28T00:41:14.213Z,4.80
2019-04-28T00:43:41.782Z,4.80
2019-04-28T00:46:08.718Z,4.70
2019-04-28T00:48:35.458Z,4.70
2019-04-28T00:51:02.197Z,4.70
2019-04-28T00:53:31.006Z,4.70
2019-04-28T00:55:55.765Z,4.70
2019-04-28T00:58:22.521Z,4.80
2019-04-28T01:00:51.358Z,4.70
2019-04-28T01:03:17.131Z,4.70
2019-04-28T01:05:43.974Z,4.70
2019-04-28T01:08:11.012Z,4.70
2019-04-28T01:10:37.661Z,4.60
2019-04-28T01:13:04.483Z,4.60
2019-04-28T01:15:46.194Z,4.60
2019-04-28T01:18:23.069Z,4.60
2019-04-28T01:20:49.760Z,4.60
2019-04-28T01:23:16.654Z,4.60
2019-04-28T01:25:43.496Z,4.60
2019-04-28T01:28:10.236Z,4.50
2019-04-28T01:33:45.189Z,4.40
2019-04-28T01:36:11.928Z,4.40
2019-04-28T01:38:40.185Z,4.40
2019-04-28T01:41:05.515Z,4.40
2019-04-28T01:43:32.462Z,4.30
2019-04-28T01:46:00.183Z,4.30
2019-04-28T01:48:26.863Z,4.20
2019-04-28T01:50:53.583Z,4.20
2019-04-28T01:53:21.045Z,4.20
2019-04-28T01:55:49.530Z,4.20
2019-04-28T01:58:14.745Z,4.20
2019-04-28T02:00:41.486Z,4.20
2019-04-28T02:03:10.261Z,4.20
2019-04-28T02:05:35.069Z,4.20
2019-04-28T02:08:01.914Z,4.20
2019-04-28T02:10:30.144Z,4.20
2019-04-28T02:12:55.661Z,4.20
2019-04-28T02:15:22.393Z,4.10
2019-04-28T02:17:50.040Z,4.10
2019-04-28T02:20:15.960Z,4.10
2019-04-28T02:22:54.569Z,4.00
2019-04-28T02:25:21.464Z,4.00
2019-04-28T02:27:49.920Z,4.00
2019-04-28T02:30:15.943Z,3.90
2019-04-28T02:32:43.458Z,3.90
2019-04-28T02:35:10.825Z,3.80
2019-04-28T02:37:51.929Z,3.90
2019-04-28T02:40:20.681Z,3.90
2019-04-28T02:42:46.311Z,3.80
2019-04-28T02:45:13.072Z,3.80
2019-04-28T02:47:42.009Z,3.70
2019-04-28T02:50:15.503Z,3.70
2019-04-28T02:52:47.055Z,3.70
2019-04-28T02:55:13.791Z,3.70
2019-04-28T02:57:47.649Z,3.60
2019-04-28T03:00:15.239Z,3.60
2019-04-28T03:02:42.023Z,3.60
2019-04-28T03:05:11.492Z,3.60
2019-04-28T03:07:35.593Z,3.60
2019-04-28T03:10:03.724Z,3.60
2019-04-28T03:12:31.370Z,3.70
2019-04-28T03:14:57.251Z,3.70
2019-04-28T03:17:23.963Z,3.70
2019-04-28T03:19:51.622Z,3.70
2019-04-28T03:22:20.282Z,3.80
2019-04-28T03:24:45.063Z,3.80
2019-04-28T03:30:06.941Z,3.90
2019-04-28T03:32:45.893Z,4.10
2019-04-28T03:35:02.922Z,4.00
2019-04-28T03:37:28.138Z,4.10
2019-04-28T03:39:54.886Z,4.20
2019-04-28T03:42:22.487Z,4.30
2019-04-28T03:44:51.224Z,4.40
2019-04-28T03:47:16.835Z,4.40
2019-04-28T03:49:43.556Z,4.40
2019-04-28T03:52:11.206Z,4.60
2019-04-28T03:54:40.701Z,4.60
2019-04-28T03:57:04.867Z,4.70
2019-04-28T03:59:32.343Z,5.30
2019-04-28T04:02:02.862Z,5.20
2019-04-28T04:04:25.967Z,5.40
2019-04-28T04:06:52.770Z,5.50
2019-04-28T04:09:21.584Z,5.50
2019-04-28T04:11:52.476Z,5.60
2019-04-28T04:14:22.710Z,5.80
2019-04-28T04:17:05.275Z,5.80
2019-04-28T04:19:32.011Z,5.90
2019-04-28T04:22:00.383Z,6.00
2019-04-28T04:24:25.603Z,6.10
2019-04-28T04:26:52.326Z,6.20
2019-04-28T04:29:21.466Z,6.40
2019-04-28T04:31:46.668Z,7.10
2019-04-28T04:34:14.151Z,7.40
2019-04-28T04:36:41.822Z,7.40
2019-04-28T04:39:10.579Z,7.80
2019-04-28T04:41:35.293Z,8.40
2019-04-28T04:44:02.093Z,8.50
2019-04-28T04:46:31.121Z,8.30
2019-04-28T04:48:56.308Z,8.20
2019-04-28T04:51:23.972Z,9.00
2019-04-28T04:53:51.737Z,10.20
2019-04-28T04:56:20.751Z,10.10
2019-04-28T04:58:45.062Z,12.00
2019-04-28T05:01:27.752Z,13.20
2019-04-28T05:04:04.487Z,13.80
2019-04-28T05:06:33.129Z,14.70
2019-04-28T05:08:59.991Z,16.10
2019-04-28T05:11:26.660Z,17.70
2019-04-28T05:13:53.430Z,18.30
2019-04-28T05:16:20.299Z,18.00
2019-04-28T05:18:47.007Z,17.40
2019-04-28T05:21:14.446Z,19.00
2019-04-28T05:23:44.093Z,19.00
2019-04-28T05:26:11.375Z,20.00
2019-04-28T05:28:43.880Z,21.20
2019-04-28T05:31:05.531Z,21.20
2019-04-28T05:33:34.042Z,20.70
2019-04-28T05:36:02.621Z,20.00
2019-04-28T05:38:25.977Z,19.70
2019-04-28T05:40:52.667Z,18.50
2019-04-28T05:43:19.597Z,19.10
2019-04-28T05:45:46.237Z,19.00
2019-04-28T05:48:12.972Z,19.40
2019-04-28T05:50:40.508Z,17.30
2019-04-28T05:53:21.738Z,17.20
2019-04-28T05:58:43.064Z,16.90
2019-04-28T06:01:20.384Z,18.10
2019-04-28T06:03:47.261Z,17.00
2019-04-28T06:06:14.027Z,16.90
2019-04-28T06:08:45.569Z,17.20
2019-04-28T06:11:19.984Z,16.40
2019-04-28T06:13:45.233Z,18.30
2019-04-28T06:16:11.987Z,17.10
2019-04-28T06:18:42.105Z,18.40
2019-04-28T06:21:06.375Z,18.40
2019-04-28T06:23:33.846Z,20.10
2019-04-28T06:26:00.561Z,20.10
2019-04-28T06:28:28.096Z,18.80
2019-04-28T06:30:54.983Z,18.80
2019-04-28T06:33:22.032Z,19.90
2019-04-28T06:35:48.776Z,18.60
2019-04-28T06:38:15.624Z,17.60
2019-04-28T06:40:42.485Z,17.70
2019-04-28T06:43:09.168Z,18.80
2019-04-28T06:45:35.903Z,21.30
2019-04-28T06:48:02.730Z,22.40
2019-04-28T06:50:30.260Z,19.80
2019-04-28T06:52:56.987Z,19.70
2019-04-28T06:55:23.755Z,19.00
2019-04-28T06:57:50.519Z,19.70
2019-04-28T07:00:17.409Z,21.00
2019-04-28T07:02:44.879Z,20.80
2019-04-28T07:05:11.716Z,20.80
2019-04-28T07:07:38.516Z,20.70
2019-04-28T07:10:06.048Z,21.20
2019-04-28T07:12:32.803Z,21.20
2019-04-28T07:14:59.544Z,20.20
2019-04-28T07:17:27.179Z,23.30
2019-04-28T07:19:55.791Z,23.30
2019-04-28T07:22:23.343Z,23.80
2019-04-28T07:24:50.058Z,21.80
2019-04-28T07:27:16.778Z,21.80
2019-04-28T07:29:43.595Z,22.90
2019-04-28T07:32:11.112Z,18.90
2019-04-28T07:34:38.685Z,19.00
2019-04-28T07:37:05.510Z,18.90
2019-04-28T07:39:32.246Z,19.20
2019-04-28T07:41:58.958Z,18.70
2019-04-28T07:44:26.452Z,19.30
2019-04-28T07:46:53.257Z,19.30
2019-04-28T07:49:19.984Z,20.20
2019-04-28T07:51:54.259Z,20.00
2019-04-28T07:54:21.848Z,19.30
2019-04-28T07:56:48.609Z,19.30
2019-04-28T07:59:16.147Z,18.70
2019-04-28T08:01:42.919Z,18.70
2019-04-28T08:04:09.662Z,20.20
2019-04-28T08:06:37.124Z,20.30
2019-04-28T08:09:03.955Z,20.20
2019-04-28T08:11:45.643Z,19.90
2019-04-28T08:14:13.124Z,19.20
2019-04-28T08:16:39.912Z,19.20
2019-04-28T08:19:07.418Z,19.10
2019-04-28T08:21:34.133Z,19.00
2019-04-28T08:24:01.689Z,20.60
2019-04-28T08:26:29.168Z,22.00
2019-04-28T08:28:55.947Z,22.00
2019-04-28T08:31:22.783Z,21.20
2019-04-28T08:34:02.141Z,22.80
2019-04-28T08:36:20.146Z,21.10
2019-04-28T08:38:46.880Z,21.10
2019-04-28T08:41:13.583Z,21.80
2019-04-28T08:43:41.135Z,23.80
2019-04-28T08:46:07.944Z,23.70
2019-04-28T08:48:34.692Z,23.20
2019-04-28T08:51:01.434Z,22.40
2019-04-28T08:53:28.163Z,23.30
2019-04-28T08:55:54.901Z,21.50
2019-04-28T08:58:21.642Z,20.80
2019-04-28T09:00:48.418Z,19.70
2019-04-28T09:03:15.135Z,19.10
2019-04-28T09:05:41.898Z,19.20
2019-04-28T09:08:08.602Z,17.20
2019-04-28T09:10:35.299Z,17.10
2019-04-28T09:13:16.893Z,16.80
2019-04-28T09:15:44.375Z,16.20
2019-04-28T09:18:11.125Z,16.20
2019-04-28T09:20:37.825Z,16.40
2019-04-28T09:23:05.290Z,17.20
2019-04-28T09:25:32.060Z,17.10
2019-04-28T09:27:58.895Z,16.50
2019-04-28T09:30:25.699Z,17.10
2019-04-28T09:32:52.440Z,16.70
2019-04-28T09:35:19.996Z,16.40
2019-04-28T09:37:47.653Z,15.80
2019-04-28T09:40:14.462Z,15.80
2019-04-28T09:42:43.930Z,16.20
2019-04-28T09:45:21.406Z,16.50
2019-04-28T09:47:48.128Z,16.50
2019-04-28T09:50:14.845Z,16.80
2019-04-28T09:52:41.605Z,16.10
2019-04-28T09:55:09.127Z,16.00
2019-04-28T09:57:35.892Z,16.00
2019-04-28T10:00:02.663Z,15.10
2019-04-28T10:02:30.113Z,14.90
2019-04-28T10:04:56.825Z,14.90
2019-04-28T10:07:23.541Z,14.70
2019-04-28T10:09:50.253Z,14.60
2019-04-28T10:12:26.854Z,14.30
2019-04-28T10:14:44.496Z,14.30
2019-04-28T10:17:11.192Z,13.80
2019-04-28T10:19:38.707Z,13.70
2019-04-28T10:22:05.403Z,13.70
2019-04-28T10:24:32.070Z,13.40
2019-04-28T10:26:58.820Z,13.70
2019-04-28T10:29:25.654Z,13.50
2019-04-28T10:31:52.382Z,13.20
2019-04-28T10:34:19.070Z,13.20
2019-04-28T10:36:45.802Z,13.20
2019-04-28T10:39:15.397Z,12.90
2019-04-28T10:41:42.081Z,12.90
2019-04-28T10:44:08.890Z,13.30
2019-04-28T10:46:35.625Z,13.10
2019-04-28T10:49:02.370Z,13.60
2019-04-28T10:51:29.092Z,13.20
2019-04-28T10:53:55.795Z,13.50
2019-04-28T10:56:22.504Z,13.70
2019-04-28T10:58:50.007Z,12.70
2019-04-28T11:01:16.741Z,12.70
2019-04-28T11:03:43.618Z,12.90
2019-04-28T11:06:12.566Z,12.80
2019-04-28T11:08:53.762Z,12.90
2019-04-28T11:11:20.546Z,12.50
2019-04-28T11:13:47.224Z,13.00
2019-04-28T11:16:14.817Z,12.90
2019-04-28T11:18:41.766Z,13.00
2019-04-28T11:21:08.607Z,13.10
2019-04-28T11:23:35.450Z,12.90
2019-04-28T11:26:02.188Z,12.90
2019-04-28T11:28:28.930Z,12.50
2019-04-28T11:30:55.821Z,12.30
2019-04-28T11:33:34.597Z,12.40
2019-04-28T11:36:01.437Z,12.70
2019-04-28T11:38:28.172Z,12.80
2019-04-28T11:40:55.689Z,12.90
2019-04-28T11:43:23.185Z,12.90
2019-04-28T11:45:50.052Z,12.80
2019-04-28T11:48:16.881Z,12.90
2019-04-28T11:50:43.622Z,12.20
2019-04-28T11:53:10.361Z,12.20
2019-04-28T11:55:37.205Z,12.20
2019-04-28T11:58:04.049Z,12.20
2019-04-28T12:00:30.804Z,11.80
2019-04-28T12:02:57.631Z,12.00
2019-04-28T12:05:33.982Z,12.20
2019-04-28T12:07:51.319Z,11.90
2019-04-28T12:10:18.878Z,12.00
2019-04-28T12:15:56.496Z,12.00
2019-04-28T12:18:29.281Z,12.00
2019-04-28T12:20:56.121Z,11.80
2019-04-28T12:23:22.859Z,12.20
2019-04-28T12:25:49.601Z,12.10
2019-04-28T12:28:16.373Z,12.00
2019-04-28T12:30:43.183Z,11.90
2019-04-28T12:33:09.925Z,11.70
2019-04-28T12:35:47.064Z,12.00
2019-04-28T12:38:04.430Z,11.90
2019-04-28T12:40:31.169Z,11.90
2019-04-28T12:42:58.010Z,11.80
2019-04-28T12:45:34.478Z,11.80
2019-04-28T12:47:51.596Z,11.70
2019-04-28T12:50:31.341Z,11.70
2019-04-28T12:52:58.182Z,11.50
2019-04-28T12:55:25.025Z,11.70
2019-04-28T12:57:51.973Z,11.70
2019-04-28T13:00:24.813Z,11.80
2019-04-28T13:02:58.254Z,11.70
2019-04-28T13:05:25.095Z,11.60
2019-04-28T13:07:51.836Z,11.30
2019-04-28T13:10:18.576Z,11.20
2019-04-28T13:12:45.405Z,11.30
2019-04-28T13:15:12.130Z,11.30
2019-04-28T13:17:39.616Z,11.70
2019-04-28T13:20:06.457Z,11.70
2019-04-28T13:22:33.208Z,11.40
2019-04-28T13:25:00.160Z,11.70
2019-04-28T13:27:26.884Z,11.90
2019-04-28T13:29:53.632Z,12.00
2019-04-28T13:32:20.471Z,12.20
2019-04-28T13:34:47.416Z,12.30
2019-04-28T13:37:14.154Z,12.30
2019-04-28T13:39:41.018Z,12.20
2019-04-28T13:42:07.841Z,12.20
2019-04-28T13:44:41.545Z,12.50
2019-04-28T13:47:08.389Z,12.40
2019-04-28T13:49:35.216Z,12.30
2019-04-28T13:52:02.014Z,11.90
2019-04-28T13:54:29.529Z,12.10
2019-04-28T13:56:56.354Z,12.10
2019-04-28T13:59:23.838Z,12.10
2019-04-28T14:01:52.620Z,12.20
2019-04-28T14:07:11.496Z,12.30
2019-04-28T14:09:38.561Z,12.00
2019-04-28T14:12:05.079Z,11.60
2019-04-28T14:14:31.919Z,11.90
2019-04-28T14:16:58.662Z,12.00
2019-04-28T14:19:25.506Z,12.30
2019-04-28T14:21:52.346Z,12.10
2019-04-28T14:24:19.091Z,12.10
2019-04-28T14:26:45.831Z,11.90
2019-04-28T14:29:12.612Z,11.80
2019-04-28T14:31:39.281Z,12.10
2019-04-28T14:34:06.154Z,12.30
2019-04-28T14:36:41.902Z,12.20
2019-04-28T14:38:59.870Z,12.20
2019-04-28T14:41:26.728Z,12.10
2019-04-28T14:43:53.524Z,12.10
2019-04-28T14:46:21.087Z,12.00
2019-04-28T14:48:47.940Z,12.00
2019-04-28T14:51:14.781Z,11.80
2019-04-28T14:53:41.631Z,11.80
2019-04-28T14:56:08.402Z,11.60
2019-04-28T14:58:35.097Z,11.60
2019-04-28T15:01:04.990Z,11.60
2019-04-28T15:03:31.755Z,11.80
2019-04-28T15:06:00.646Z,11.90
2019-04-28T15:08:30.556Z,11.80
2019-04-28T15:11:00.370Z,11.90
2019-04-28T15:13:30.567Z,11.90
2019-04-28T15:15:59.079Z,12.00
2019-04-28T15:18:26.630Z,12.00
2019-04-28T15:20:53.428Z,12.00
2019-04-28T15:23:20.934Z,11.80
2019-04-28T15:25:47.672Z,11.80
2019-04-28T15:28:14.411Z,11.80
2019-04-28T15:30:41.260Z,12.00
2019-04-28T15:33:07.995Z,11.80
2019-04-28T15:35:34.737Z,11.70
2019-04-28T15:38:01.583Z,11.80
2019-04-28T15:40:28.527Z,11.90
2019-04-28T15:42:55.476Z,11.80
2019-04-28T15:45:22.413Z,11.80
2019-04-28T15:47:49.978Z,11.70
2019-04-28T15:50:16.825Z,11.70
2019-04-28T15:52:43.663Z,11.80
2019-04-28T15:55:10.504Z,11.80
2019-04-28T15:57:37.246Z,11.80
2019-04-28T16:00:04.086Z,11.80
2019-04-28T16:02:30.825Z,11.80
2019-04-28T16:04:57.567Z,11.70
2019-04-28T16:07:25.402Z,11.70
2019-04-28T16:09:52.071Z,11.50
2019-04-28T16:12:18.820Z,11.50
2019-04-28T16:14:45.552Z,11.50
2019-04-28T16:17:12.238Z,11.30
2019-04-28T16:19:40.468Z,11.20
2019-04-28T16:22:07.311Z,11.10
2019-04-28T16:24:34.156Z,11.20
2019-04-28T16:27:00.894Z,11.10
2019-04-28T16:29:27.556Z,11.00
2019-04-28T16:31:54.374Z,10.90
2019-04-28T16:34:21.216Z,10.80
2019-04-28T16:36:47.960Z,10.70
2019-04-28T16:39:14.800Z,10.70
2019-04-28T16:41:41.545Z,10.70
2019-04-28T16:44:09.213Z,10.60
2019-04-28T16:46:36.150Z,10.50
2019-04-28T16:49:03.708Z,10.40
2019-04-28T16:51:30.453Z,10.40
2019-04-28T16:53:58.114Z,10.30
2019-04-28T16:56:27.930Z,10.30
2019-04-28T16:58:59.752Z,10.30
2019-04-28T17:01:29.596Z,10.30
2019-04-28T17:03:56.553Z,10.30
2019-04-28T17:06:23.388Z,10.30
2019-04-28T17:08:50.230Z,10.20
2019-04-28T17:11:16.969Z,10.20
2019-04-28T17:13:43.705Z,10.10
2019-04-28T17:16:10.552Z,10.20
2019-04-28T17:18:37.395Z,10.00
2019-04-28T17:21:04.161Z,10.00
2019-04-28T17:23:30.979Z,10.00
2019-04-28T17:25:57.819Z,9.80
2019-04-28T17:28:24.574Z,9.90
2019-04-28T17:30:51.301Z,9.90
2019-04-28T17:33:18.251Z,9.80
2019-04-28T17:35:44.986Z,9.70
2019-04-28T17:38:11.670Z,9.70
2019-04-28T17:40:38.467Z,9.60
2019-04-28T17:43:05.312Z,9.40
2019-04-28T17:45:32.053Z,9.40
2019-04-28T17:47:58.996Z,9.30
2019-04-28T17:50:25.965Z,9.30
2019-04-28T17:52:53.503Z,9.00
2019-04-28T17:55:20.361Z,9.00
2019-04-28T17:57:47.301Z,8.90
2019-04-28T18:03:07.088Z,8.80
2019-04-28T18:05:34.851Z,8.70
2019-04-28T18:08:01.695Z,8.60
2019-04-28T18:10:28.537Z,8.50
2019-04-28T18:13:00.725Z,8.40
2019-04-28T18:15:26.219Z,8.30
2019-04-28T18:17:55.006Z,8.10
2019-04-28T18:20:21.856Z,7.90
2019-04-28T18:22:48.588Z,7.80
2019-04-28T18:25:15.413Z,7.70
2019-04-28T18:27:42.259Z,7.50
2019-04-28T18:30:09.015Z,7.30
2019-04-28T18:35:33.011Z,7.00
2019-04-28T18:38:00.776Z,6.80
2019-04-28T18:40:31.305Z,6.30
2019-04-28T18:42:59.073Z,6.20
2019-04-28T18:45:25.915Z,6.10
2019-04-28T18:47:52.758Z,5.90
2019-04-28T18:50:19.499Z,5.80
2019-04-28T18:52:46.340Z,5.60
2019-04-28T18:55:13.082Z,5.40
2019-04-28T18:57:39.776Z,5.30
2019-04-28T19:00:06.666Z,5.20
2019-04-28T19:02:35.457Z,5.20
2019-04-28T19:05:02.195Z,5.10
2019-04-28T19:07:35.078Z,5.00
2019-04-28T19:10:02.739Z,4.80
2019-04-28T19:12:30.505Z,4.70
2019-04-28T19:15:06.128Z,4.50
2019-04-28T19:17:48.765Z,4.50
2019-04-28T19:20:15.610Z,4.40
2019-04-28T19:22:43.374Z,4.30
2019-04-28T19:25:10.055Z,4.20
2019-04-28T19:27:37.572Z,4.00
2019-04-28T19:30:04.361Z,4.00
2019-04-28T19:32:31.871Z,3.80
2019-04-28T19:34:58.718Z,3.80
2019-04-28T19:37:25.569Z,3.70
2019-04-28T19:39:52.359Z,3.60
2019-04-28T19:42:19.140Z,3.40
2019-04-28T19:44:45.985Z,3.30
2019-04-28T19:47:12.725Z,3.20
2019-04-28T19:49:39.463Z,3.10
2019-04-28T19:52:06.136Z,3.00
2019-04-28T19:54:32.945Z,3.00
2019-04-28T19:57:04.604Z,2.80
2019-04-28T19:59:31.370Z,2.80
2019-04-28T20:01:58.189Z,2.70
2019-04-28T20:04:25.026Z,2.50
2019-04-28T20:06:51.868Z,2.40
2019-04-28T20:09:18.819Z,2.30
2019-04-28T20:11:45.503Z,2.30
2019-04-28T20:14:13.006Z,2.30
2019-04-28T20:16:39.857Z,2.30
2019-04-28T20:19:06.595Z,2.20
2019-04-28T20:21:33.438Z,2.20
2019-04-28T20:24:00.180Z,2.10
2019-04-28T20:26:26.920Z,2.00
2019-04-28T20:28:53.625Z,2.00
2019-04-28T20:31:20.399Z,1.90
2019-04-28T20:33:47.142Z,1.80
2019-04-28T20:36:16.853Z,1.80
2019-04-28T20:38:43.698Z,1.80
2019-04-28T20:41:25.393Z,1.70
2019-04-28T20:43:52.944Z,1.60
2019-04-28T20:46:19.730Z,1.60
2019-04-28T20:48:47.243Z,1.60
2019-04-28T20:51:13.986Z,1.60
2019-04-28T20:53:40.730Z,1.60
2019-04-28T20:56:07.568Z,1.60
2019-04-28T20:58:34.414Z,1.60
2019-04-28T21:01:01.256Z,1.50
2019-04-28T21:03:27.997Z,1.50
2019-04-28T21:05:54.916Z,1.30
2019-04-28T21:08:21.604Z,1.30
2019-04-28T21:10:48.425Z,1.30
2019-04-28T21:13:15.367Z,1.20
2019-04-28T21:15:42.210Z,1.20
2019-04-28T21:18:08.949Z,1.20
2019-04-28T21:20:35.792Z,1.20
2019-04-28T21:23:02.501Z,1.10
2019-04-28T21:25:29.190Z,1.10
2019-04-28T21:27:56.018Z,1.00
2019-04-28T21:30:22.857Z,0.90
2019-04-28T21:32:49.598Z,0.80
2019-04-28T21:35:16.341Z,0.70
2019-04-28T21:37:43.080Z,0.70
2019-04-28T21:40:09.923Z,0.60
2019-04-28T21:42:42.806Z,0.50
2019-04-28T21:45:45.592Z,0.50
2019-04-28T21:48:12.535Z,0.40
2019-04-28T21:50:39.275Z,0.40
2019-04-28T21:53:06.016Z,0.30
2019-04-28T21:55:32.756Z,0.20
2019-04-28T21:57:59.580Z,0.30
2019-04-28T22:00:26.652Z,0.20
2019-04-28T22:02:53.389Z,0.30
2019-04-28T22:05:30.194Z,0.20
2019-04-28T22:07:47.178Z,0.20
2019-04-28T22:10:14.021Z,0.20
2019-04-28T22:12:40.863Z,0.10
2019-04-28T22:15:07.810Z,0.10
2019-04-28T22:17:34.652Z,0.10
2019-04-28T22:20:01.600Z,0.10
2019-04-28T22:22:28.541Z,0.10
2019-04-28T22:24:56.304Z,0.00
2019-04-28T22:27:23.149Z,0.10
2019-04-28T22:29:49.993Z,0.10
2019-04-28T22:32:16.938Z,0.00
2019-04-28T22:34:43.779Z,0.00
2019-04-28T22:37:10.622Z,0.00
2019-04-28T22:39:37.363Z,0.00
2019-04-28T22:42:04.095Z,-0.20
2019-04-28T22:44:30.953Z,-0.20
2019-04-28T22:46:57.894Z,-0.30
2019-04-28T22:49:24.666Z,-0.40
2019-04-28T22:51:52.221Z,-0.40
2019-04-28T22:54:22.948Z,-0.40
2019-04-28T22:56:52.430Z,-0.30
2019-04-28T22:59:20.196Z,-0.40
2019-04-28T23:01:53.081Z,-0.30
2019-04-28T23:04:25.967Z,-0.40
2019-04-28T23:06:52.809Z,-0.30
2019-04-28T23:09:19.752Z,-0.30
2019-04-28T23:11:46.597Z,-0.30
2019-04-28T23:14:13.542Z,-0.30
2019-04-28T23:16:40.383Z,-0.30
2019-04-28T23:19:07.229Z,-0.30
2019-04-28T23:21:48.921Z,-0.40
2019-04-28T23:24:15.965Z,-0.50
2019-04-28T23:26:42.706Z,-0.50
2019-04-28T23:29:09.444Z,-0.60
2019-04-28T23:31:36.288Z,-0.60
2019-04-28T23:34:03.130Z,-0.60
2019-04-28T23:36:29.960Z,-0.60
2019-04-28T23:38:56.713Z,-0.70
2019-04-28T23:41:29.702Z,-0.60
2019-04-28T23:43:56.543Z,-0.60
2019-04-28T23:46:23.491Z,-0.60
2019-04-28T23:48:51.154Z,-0.60
2019-04-28T23:51:38.817Z,-0.60
2019-04-28T23:54:05.628Z,-0.60
2019-04-28T23:56:32.363Z,-0.70
2019-04-28T23:58:59.206Z,-0.80
